createdAt,value
2017-10-19T21:45:04.251Z,58.57
2017-10-19T21:47:31.798Z,67.40
2017-10-19T21:50:04.552Z,64.90
2017-10-19T21:52:32.104Z,68.10
2017-10-19T21:54:59.657Z,62.07
2017-10-19T21:57:27.305Z,60.63
2017-10-19T21:59:54.861Z,69.67
2017-10-19T22:02:29.377Z,66.27
2017-10-19T22:04:56.925Z,66.60
2017-10-19T22:07:24.596Z,61.73
2017-10-19T22:09:52.201Z,63.30
2017-10-19T22:12:19.820Z,53.70
2017-10-19T22:14:47.367Z,61.70
2017-10-19T22:17:14.978Z,63.67
2017-10-19T22:19:42.542Z,59.70
2017-10-19T22:22:10.092Z,62.27
2017-10-19T22:24:37.677Z,59.13
2017-10-19T22:27:05.273Z,49.23
2017-10-19T22:29:32.846Z,62.40
2017-10-19T22:32:02.590Z,57.27
2017-10-19T22:34:30.189Z,57.70
2017-10-19T22:36:57.777Z,52.47
2017-10-19T22:39:25.837Z,50.63
2017-10-19T22:41:53.435Z,62.57
2017-10-19T22:44:20.982Z,53.37
2017-10-19T22:46:48.521Z,48.47
2017-10-19T22:49:16.093Z,58.23
2017-10-19T22:51:43.665Z,51.30
2017-10-19T22:54:11.201Z,53.47
2017-10-19T22:56:51.304Z,49.30
2017-10-19T22:59:18.915Z,49.50
2017-10-19T23:01:46.485Z,48.40
2017-10-19T23:04:14.012Z,51.03
2017-10-19T23:06:41.904Z,52.23
2017-10-19T23:09:10.332Z,56.17
2017-10-19T23:11:37.873Z,51.20
2017-10-19T23:14:05.420Z,55.03
2017-10-19T23:16:32.960Z,53.60
2017-10-19T23:19:00.539Z,48.80
2017-10-19T23:21:28.101Z,54.40
2017-10-19T23:23:55.636Z,49.50
2017-10-19T23:26:23.223Z,43.87
2017-10-19T23:28:50.812Z,53.20
2017-10-19T23:31:18.348Z,50.00
2017-10-19T23:33:46.001Z,53.00
2017-10-19T23:36:13.536Z,49.30
2017-10-19T23:38:41.076Z,47.80
2017-10-19T23:41:08.612Z,47.17
2017-10-19T23:43:36.142Z,45.07
2017-10-19T23:46:03.679Z,47.17
2017-10-19T23:48:31.252Z,41.73
2017-10-19T23:50:58.825Z,43.23
2017-10-19T23:53:26.400Z,43.50
2017-10-19T23:55:53.941Z,46.90
2017-10-19T23:58:21.480Z,43.50
